sensor_id;sensor_type;location;lat;lon;timestamp;P1;durP1;ratioP1;P2;durP2;ratioP2
10226;SDS011;15634;48.766;2.272;2023-05-19T00:01:42;11.40;;;5.78;;
10226;SDS011;15634;48.766;2.272;2023-05-19T00:04:09;13.75;;;5.97;;
10226;SDS011;15634;48.766;2.272;2023-05-19T00:06:38;12.00;;;6.00;;
10226;SDS011;15634;48.766;2.272;2023-05-19T00:09:06;13.02;;;6.03;;
10226;SDS011;15634;48.766;2.272;2023-05-19T00:11:34;14.50;;;5.88;;
10226;SDS011;15634;48.766;2.272;2023-05-19T00:14:04;15.10;;;6.53;;
10226;SDS011;15634;48.766;2.272;2023-05-19T00:16:32;11.88;;;6.43;;
10226;SDS011;15634;48.766;2.272;2023-05-19T00:19:00;14.38;;;7.07;;
10226;SDS011;15634;48.766;2.272;2023-05-19T00:21:28;16.38;;;6.72;;
10226;SDS011;15634;48.766;2.272;2023-05-19T00:23:55;14.60;;;7.15;;
10226;SDS011;15634;48.766;2.272;2023-05-19T00:26:22;16.05;;;6.72;;
10226;SDS011;15634;48.766;2.272;2023-05-19T00:28:48;14.13;;;7.07;;
10226;SDS011;15634;48.766;2.272;2023-05-19T00:31:17;14.77;;;7.40;;
10226;SDS011;15634;48.766;2.272;2023-05-19T00:33:43;16.70;;;7.40;;
10226;SDS011;15634;48.766;2.272;2023-05-19T00:36:10;12.85;;;6.88;;
10226;SDS011;15634;48.766;2.272;2023-05-19T00:38:37;16.95;;;6.68;;
10226;SDS011;15634;48.766;2.272;2023-05-19T00:41:04;16.27;;;7.50;;
10226;SDS011;15634;48.766;2.272;2023-05-19T00:43:31;13.60;;;7.03;;
10226;SDS011;15634;48.766;2.272;2023-05-19T00:45:59;13.75;;;7.40;;
10226;SDS011;15634;48.766;2.272;2023-05-19T00:48:27;12.43;;;7.40;;
10226;SDS011;15634;48.766;2.272;2023-05-19T00:50:54;17.95;;;7.80;;
10226;SDS011;15634;48.766;2.272;2023-05-19T00:53:26;17.30;;;7.93;;
10226;SDS011;15634;48.766;2.272;2023-05-19T00:55:52;15.15;;;8.32;;
10226;SDS011;15634;48.766;2.272;2023-05-19T00:58:19;13.65;;;7.43;;
10226;SDS011;15634;48.766;2.272;2023-05-19T01:00:47;16.05;;;7.65;;
10226;SDS011;15634;48.766;2.272;2023-05-19T01:03:14;14.50;;;8.07;;
10226;SDS011;15634;48.766;2.272;2023-05-19T01:05:45;14.85;;;7.35;;
10226;SDS011;15634;48.766;2.272;2023-05-19T01:08:13;19.15;;;8.27;;
10226;SDS011;15634;48.766;2.272;2023-05-19T01:10:40;17.20;;;8.10;;
10226;SDS011;15634;48.766;2.272;2023-05-19T01:13:07;14.98;;;8.38;;
10226;SDS011;15634;48.766;2.272;2023-05-19T01:15:35;17.38;;;8.27;;
10226;SDS011;15634;48.766;2.272;2023-05-19T01:18:07;17.92;;;8.55;;
10226;SDS011;15634;48.766;2.272;2023-05-19T01:20:37;12.93;;;8.55;;
10226;SDS011;15634;48.766;2.272;2023-05-19T01:23:15;17.05;;;8.65;;
10226;SDS011;15634;48.766;2.272;2023-05-19T01:28:43;16.20;;;8.85;;
10226;SDS011;15634;48.766;2.272;2023-05-19T01:31:34;16.92;;;8.70;;
10226;SDS011;15634;48.766;2.272;2023-05-19T01:34:02;16.92;;;7.93;;
10226;SDS011;15634;48.766;2.272;2023-05-19T01:36:29;19.73;;;9.23;;
10226;SDS011;15634;48.766;2.272;2023-05-19T01:38:59;16.67;;;8.27;;
10226;SDS011;15634;48.766;2.272;2023-05-19T01:41:26;19.00;;;9.00;;
10226;SDS011;15634;48.766;2.272;2023-05-19T01:43:53;17.80;;;8.20;;
10226;SDS011;15634;48.766;2.272;2023-05-19T01:46:21;17.55;;;9.13;;
10226;SDS011;15634;48.766;2.272;2023-05-19T01:48:50;21.88;;;8.35;;
10226;SDS011;15634;48.766;2.272;2023-05-19T01:51:17;17.40;;;8.63;;
10226;SDS011;15634;48.766;2.272;2023-05-19T01:53:44;16.50;;;8.93;;
10226;SDS011;15634;48.766;2.272;2023-05-19T01:56:11;17.17;;;8.25;;
10226;SDS011;15634;48.766;2.272;2023-05-19T01:58:43;16.20;;;8.27;;
10226;SDS011;15634;48.766;2.272;2023-05-19T02:01:15;16.65;;;9.23;;
10226;SDS011;15634;48.766;2.272;2023-05-19T02:03:49;20.23;;;9.05;;
10226;SDS011;15634;48.766;2.272;2023-05-19T02:06:27;16.75;;;9.15;;
10226;SDS011;15634;48.766;2.272;2023-05-19T02:09:01;14.05;;;9.07;;
10226;SDS011;15634;48.766;2.272;2023-05-19T02:11:31;18.80;;;8.75;;
10226;SDS011;15634;48.766;2.272;2023-05-19T02:14:02;17.85;;;8.88;;
10226;SDS011;15634;48.766;2.272;2023-05-19T02:16:33;18.98;;;9.30;;
10226;SDS011;15634;48.766;2.272;2023-05-19T02:19:03;22.73;;;9.38;;
10226;SDS011;15634;48.766;2.272;2023-05-19T02:21:29;22.25;;;9.48;;
10226;SDS011;15634;48.766;2.272;2023-05-19T02:23:56;19.90;;;9.00;;
10226;SDS011;15634;48.766;2.272;2023-05-19T02:26:23;19.70;;;9.55;;
10226;SDS011;15634;48.766;2.272;2023-05-19T02:28:50;18.38;;;10.02;;
10226;SDS011;15634;48.766;2.272;2023-05-19T02:31:16;22.02;;;9.73;;
10226;SDS011;15634;48.766;2.272;2023-05-19T02:33:43;25.48;;;9.45;;
10226;SDS011;15634;48.766;2.272;2023-05-19T02:36:11;22.63;;;10.68;;
10226;SDS011;15634;48.766;2.272;2023-05-19T02:38:38;17.58;;;8.60;;
10226;SDS011;15634;48.766;2.272;2023-05-19T02:41:05;22.05;;;10.10;;
10226;SDS011;15634;48.766;2.272;2023-05-19T02:43:31;18.38;;;9.13;;
10226;SDS011;15634;48.766;2.272;2023-05-19T02:45:58;15.60;;;9.45;;
10226;SDS011;15634;48.766;2.272;2023-05-19T02:48:24;22.70;;;9.18;;
10226;SDS011;15634;48.766;2.272;2023-05-19T02:50:51;18.10;;;9.52;;
10226;SDS011;15634;48.766;2.272;2023-05-19T02:53:19;18.63;;;10.32;;
10226;SDS011;15634;48.766;2.272;2023-05-19T02:55:45;17.85;;;9.13;;
10226;SDS011;15634;48.766;2.272;2023-05-19T02:58:12;23.88;;;10.18;;
10226;SDS011;15634;48.766;2.272;2023-05-19T03:00:39;23.50;;;10.50;;
10226;SDS011;15634;48.766;2.272;2023-05-19T03:03:05;22.55;;;9.63;;
10226;SDS011;15634;48.766;2.272;2023-05-19T03:05:34;22.38;;;10.23;;
10226;SDS011;15634;48.766;2.272;2023-05-19T03:08:01;26.20;;;10.88;;
10226;SDS011;15634;48.766;2.272;2023-05-19T03:10:29;19.48;;;9.82;;
10226;SDS011;15634;48.766;2.272;2023-05-19T03:12:55;23.73;;;9.95;;
10226;SDS011;15634;48.766;2.272;2023-05-19T03:15:22;20.02;;;9.88;;
10226;SDS011;15634;48.766;2.272;2023-05-19T03:17:48;21.88;;;10.48;;
10226;SDS011;15634;48.766;2.272;2023-05-19T03:20:16;23.20;;;9.85;;
10226;SDS011;15634;48.766;2.272;2023-05-19T03:22:42;21.77;;;10.63;;
10226;SDS011;15634;48.766;2.272;2023-05-19T03:25:09;21.25;;;10.05;;
10226;SDS011;15634;48.766;2.272;2023-05-19T03:27:37;25.25;;;10.27;;
10226;SDS011;15634;48.766;2.272;2023-05-19T03:30:05;20.60;;;10.15;;
10226;SDS011;15634;48.766;2.272;2023-05-19T03:32:33;21.73;;;10.05;;
10226;SDS011;15634;48.766;2.272;2023-05-19T03:35:01;22.90;;;10.27;;
10226;SDS011;15634;48.766;2.272;2023-05-19T03:37:28;23.90;;;10.23;;
10226;SDS011;15634;48.766;2.272;2023-05-19T03:39:55;21.73;;;10.77;;
10226;SDS011;15634;48.766;2.272;2023-05-19T03:42:21;22.15;;;10.30;;
10226;SDS011;15634;48.766;2.272;2023-05-19T03:44:49;22.77;;;10.32;;
10226;SDS011;15634;48.766;2.272;2023-05-19T03:47:16;25.40;;;10.95;;
10226;SDS011;15634;48.766;2.272;2023-05-19T03:49:42;25.00;;;11.52;;
10226;SDS011;15634;48.766;2.272;2023-05-19T03:52:09;21.80;;;10.73;;
10226;SDS011;15634;48.766;2.272;2023-05-19T03:54:37;18.73;;;10.77;;
10226;SDS011;15634;48.766;2.272;2023-05-19T03:57:04;21.23;;;11.30;;
10226;SDS011;15634;48.766;2.272;2023-05-19T03:59:31;20.35;;;10.60;;
10226;SDS011;15634;48.766;2.272;2023-05-19T04:02:00;19.85;;;10.48;;
10226;SDS011;15634;48.766;2.272;2023-05-19T04:04:27;22.83;;;11.60;;
10226;SDS011;15634;48.766;2.272;2023-05-19T04:06:54;23.55;;;10.93;;
10226;SDS011;15634;48.766;2.272;2023-05-19T04:09:20;25.48;;;10.82;;
10226;SDS011;15634;48.766;2.272;2023-05-19T04:11:48;20.20;;;10.65;;
10226;SDS011;15634;48.766;2.272;2023-05-19T04:14:14;24.98;;;11.60;;
10226;SDS011;15634;48.766;2.272;2023-05-19T04:16:41;23.77;;;11.02;;
10226;SDS011;15634;48.766;2.272;2023-05-19T04:19:09;22.33;;;10.90;;
10226;SDS011;15634;48.766;2.272;2023-05-19T04:21:35;24.70;;;10.70;;
10226;SDS011;15634;48.766;2.272;2023-05-19T04:24:02;21.27;;;11.52;;
10226;SDS011;15634;48.766;2.272;2023-05-19T04:26:30;23.05;;;11.43;;
10226;SDS011;15634;48.766;2.272;2023-05-19T04:28:58;25.75;;;11.85;;
10226;SDS011;15634;48.766;2.272;2023-05-19T04:31:25;22.73;;;11.13;;
10226;SDS011;15634;48.766;2.272;2023-05-19T04:33:52;20.08;;;11.43;;
10226;SDS011;15634;48.766;2.272;2023-05-19T04:36:20;23.90;;;12.02;;
10226;SDS011;15634;48.766;2.272;2023-05-19T04:38:48;25.17;;;11.88;;
10226;SDS011;15634;48.766;2.272;2023-05-19T04:41:18;24.90;;;11.57;;
10226;SDS011;15634;48.766;2.272;2023-05-19T04:43:46;24.63;;;11.85;;
10226;SDS011;15634;48.766;2.272;2023-05-19T04:46:14;25.58;;;12.57;;
10226;SDS011;15634;48.766;2.272;2023-05-19T04:48:41;27.65;;;11.82;;
10226;SDS011;15634;48.766;2.272;2023-05-19T04:51:08;25.50;;;11.98;;
10226;SDS011;15634;48.766;2.272;2023-05-19T04:53:39;21.65;;;11.77;;
10226;SDS011;15634;48.766;2.272;2023-05-19T04:56:07;27.05;;;11.95;;
10226;SDS011;15634;48.766;2.272;2023-05-19T04:58:34;26.00;;;11.93;;
10226;SDS011;15634;48.766;2.272;2023-05-19T05:01:02;22.23;;;11.48;;
10226;SDS011;15634;48.766;2.272;2023-05-19T05:03:28;20.73;;;11.65;;
10226;SDS011;15634;48.766;2.272;2023-05-19T05:05:57;26.35;;;12.52;;
10226;SDS011;15634;48.766;2.272;2023-05-19T05:08:23;24.67;;;12.38;;
10226;SDS011;15634;48.766;2.272;2023-05-19T05:10:52;26.13;;;13.40;;
10226;SDS011;15634;48.766;2.272;2023-05-19T05:13:20;22.60;;;11.93;;
10226;SDS011;15634;48.766;2.272;2023-05-19T05:15:48;21.13;;;11.93;;
10226;SDS011;15634;48.766;2.272;2023-05-19T05:18:16;27.75;;;12.13;;
10226;SDS011;15634;48.766;2.272;2023-05-19T05:20:44;27.38;;;12.18;;
10226;SDS011;15634;48.766;2.272;2023-05-19T05:23:12;28.58;;;12.60;;
10226;SDS011;15634;48.766;2.272;2023-05-19T05:25:39;25.95;;;11.90;;
10226;SDS011;15634;48.766;2.272;2023-05-19T05:28:08;22.88;;;11.77;;
10226;SDS011;15634;48.766;2.272;2023-05-19T05:30:34;23.73;;;11.38;;
10226;SDS011;15634;48.766;2.272;2023-05-19T05:33:01;23.48;;;11.57;;
10226;SDS011;15634;48.766;2.272;2023-05-19T05:35:28;25.17;;;12.57;;
10226;SDS011;15634;48.766;2.272;2023-05-19T05:37:55;25.80;;;12.27;;
10226;SDS011;15634;48.766;2.272;2023-05-19T05:40:22;25.52;;;12.13;;
10226;SDS011;15634;48.766;2.272;2023-05-19T05:42:49;26.17;;;11.32;;
10226;SDS011;15634;48.766;2.272;2023-05-19T05:45:17;21.30;;;11.85;;
10226;SDS011;15634;48.766;2.272;2023-05-19T05:47:44;23.20;;;11.85;;
10226;SDS011;15634;48.766;2.272;2023-05-19T05:50:11;26.23;;;12.27;;
10226;SDS011;15634;48.766;2.272;2023-05-19T05:52:38;24.60;;;12.05;;
10226;SDS011;15634;48.766;2.272;2023-05-19T05:55:07;27.42;;;12.55;;
10226;SDS011;15634;48.766;2.272;2023-05-19T05:57:34;24.35;;;11.88;;
10226;SDS011;15634;48.766;2.272;2023-05-19T06:00:01;21.85;;;11.52;;
10226;SDS011;15634;48.766;2.272;2023-05-19T06:02:32;24.52;;;12.43;;
10226;SDS011;15634;48.766;2.272;2023-05-19T06:04:59;21.83;;;11.82;;
10226;SDS011;15634;48.766;2.272;2023-05-19T06:07:26;27.98;;;12.85;;
10226;SDS011;15634;48.766;2.272;2023-05-19T06:09:53;25.40;;;11.88;;
10226;SDS011;15634;48.766;2.272;2023-05-19T06:12:20;23.88;;;12.18;;
10226;SDS011;15634;48.766;2.272;2023-05-19T06:14:47;22.67;;;11.23;;
10226;SDS011;15634;48.766;2.272;2023-05-19T06:17:14;24.35;;;11.75;;
10226;SDS011;15634;48.766;2.272;2023-05-19T06:19:42;25.02;;;12.07;;
10226;SDS011;15634;48.766;2.272;2023-05-19T06:22:09;24.27;;;11.93;;
10226;SDS011;15634;48.766;2.272;2023-05-19T06:24:36;26.05;;;11.85;;
10226;SDS011;15634;48.766;2.272;2023-05-19T06:27:02;25.05;;;13.75;;
10226;SDS011;15634;48.766;2.272;2023-05-19T06:29:29;24.00;;;12.40;;
10226;SDS011;15634;48.766;2.272;2023-05-19T06:31:56;26.58;;;11.30;;
10226;SDS011;15634;48.766;2.272;2023-05-19T06:34:22;21.33;;;11.75;;
10226;SDS011;15634;48.766;2.272;2023-05-19T06:36:51;24.85;;;11.68;;
10226;SDS011;15634;48.766;2.272;2023-05-19T06:39:17;20.85;;;11.55;;
10226;SDS011;15634;48.766;2.272;2023-05-19T06:41:44;22.98;;;11.75;;
10226;SDS011;15634;48.766;2.272;2023-05-19T06:44:10;22.92;;;10.73;;
10226;SDS011;15634;48.766;2.272;2023-05-19T06:46:37;23.63;;;11.73;;
10226;SDS011;15634;48.766;2.272;2023-05-19T06:49:03;22.77;;;11.75;;
10226;SDS011;15634;48.766;2.272;2023-05-19T06:51:30;21.10;;;10.88;;
10226;SDS011;15634;48.766;2.272;2023-05-19T06:53:58;23.70;;;12.88;;
10226;SDS011;15634;48.766;2.272;2023-05-19T06:56:25;21.75;;;11.32;;
10226;SDS011;15634;48.766;2.272;2023-05-19T06:58:51;22.02;;;11.48;;
10226;SDS011;15634;48.766;2.272;2023-05-19T07:01:18;25.52;;;11.10;;
10226;SDS011;15634;48.766;2.272;2023-05-19T07:03:45;17.20;;;10.00;;
10226;SDS011;15634;48.766;2.272;2023-05-19T07:06:11;23.27;;;11.88;;
10226;SDS011;15634;48.766;2.272;2023-05-19T07:08:38;22.65;;;11.15;;
10226;SDS011;15634;48.766;2.272;2023-05-19T07:11:06;23.20;;;11.20;;
10226;SDS011;15634;48.766;2.272;2023-05-19T07:13:32;22.02;;;11.57;;
10226;SDS011;15634;48.766;2.272;2023-05-19T07:15:59;20.42;;;10.82;;
10226;SDS011;15634;48.766;2.272;2023-05-19T07:18:26;24.52;;;10.55;;
10226;SDS011;15634;48.766;2.272;2023-05-19T07:20:55;22.52;;;9.88;;
10226;SDS011;15634;48.766;2.272;2023-05-19T07:23:22;17.60;;;8.70;;
10226;SDS011;15634;48.766;2.272;2023-05-19T07:25:50;19.83;;;8.75;;
10226;SDS011;15634;48.766;2.272;2023-05-19T07:28:20;16.45;;;8.73;;
10226;SDS011;15634;48.766;2.272;2023-05-19T07:30:47;17.17;;;9.10;;
10226;SDS011;15634;48.766;2.272;2023-05-19T07:33:14;17.40;;;8.80;;
10226;SDS011;15634;48.766;2.272;2023-05-19T07:35:41;22.90;;;10.20;;
10226;SDS011;15634;48.766;2.272;2023-05-19T07:38:08;18.15;;;9.77;;
10226;SDS011;15634;48.766;2.272;2023-05-19T07:40:35;21.38;;;10.40;;
10226;SDS011;15634;48.766;2.272;2023-05-19T07:43:01;22.25;;;10.82;;
10226;SDS011;15634;48.766;2.272;2023-05-19T07:45:29;18.95;;;10.18;;
10226;SDS011;15634;48.766;2.272;2023-05-19T07:47:56;19.23;;;9.27;;
10226;SDS011;15634;48.766;2.272;2023-05-19T07:50:22;15.48;;;9.32;;
10226;SDS011;15634;48.766;2.272;2023-05-19T07:52:49;23.92;;;9.60;;
10226;SDS011;15634;48.766;2.272;2023-05-19T07:55:16;15.32;;;8.85;;
10226;SDS011;15634;48.766;2.272;2023-05-19T07:57:43;16.27;;;9.27;;
10226;SDS011;15634;48.766;2.272;2023-05-19T08:00:10;24.05;;;10.23;;
10226;SDS011;15634;48.766;2.272;2023-05-19T08:02:39;15.50;;;7.95;;
10226;SDS011;15634;48.766;2.272;2023-05-19T08:05:06;12.63;;;7.45;;
10226;SDS011;15634;48.766;2.272;2023-05-19T08:07:33;20.58;;;8.50;;
10226;SDS011;15634;48.766;2.272;2023-05-19T08:10:00;14.63;;;7.65;;
10226;SDS011;15634;48.766;2.272;2023-05-19T08:12:27;20.92;;;8.20;;
10226;SDS011;15634;48.766;2.272;2023-05-19T08:14:53;15.40;;;8.40;;
10226;SDS011;15634;48.766;2.272;2023-05-19T08:17:20;14.30;;;8.38;;
10226;SDS011;15634;48.766;2.272;2023-05-19T08:19:48;15.13;;;7.95;;
10226;SDS011;15634;48.766;2.272;2023-05-19T08:22:15;17.40;;;8.02;;
10226;SDS011;15634;48.766;2.272;2023-05-19T08:24:41;22.25;;;8.75;;
10226;SDS011;15634;48.766;2.272;2023-05-19T08:27:08;15.27;;;8.05;;
10226;SDS011;15634;48.766;2.272;2023-05-19T08:29:35;14.23;;;8.32;;
10226;SDS011;15634;48.766;2.272;2023-05-19T08:32:02;13.52;;;7.70;;
10226;SDS011;15634;48.766;2.272;2023-05-19T08:34:29;18.80;;;7.53;;
10226;SDS011;15634;48.766;2.272;2023-05-19T08:36:57;21.05;;;8.13;;
10226;SDS011;15634;48.766;2.272;2023-05-19T08:39:24;15.07;;;7.90;;
10226;SDS011;15634;48.766;2.272;2023-05-19T08:41:51;17.45;;;8.18;;
10226;SDS011;15634;48.766;2.272;2023-05-19T08:44:18;16.30;;;7.78;;
10226;SDS011;15634;48.766;2.272;2023-05-19T08:46:44;14.93;;;7.72;;
10226;SDS011;15634;48.766;2.272;2023-05-19T08:49:12;13.10;;;7.97;;
10226;SDS011;15634;48.766;2.272;2023-05-19T08:51:41;18.77;;;8.50;;
10226;SDS011;15634;48.766;2.272;2023-05-19T08:54:14;15.38;;;8.75;;
10226;SDS011;15634;48.766;2.272;2023-05-19T08:56:42;18.23;;;8.82;;
10226;SDS011;15634;48.766;2.272;2023-05-19T08:59:10;18.65;;;8.18;;
10226;SDS011;15634;48.766;2.272;2023-05-19T09:01:37;15.25;;;8.55;;
10226;SDS011;15634;48.766;2.272;2023-05-19T09:04:04;12.98;;;7.68;;
10226;SDS011;15634;48.766;2.272;2023-05-19T09:06:31;16.40;;;7.38;;
10226;SDS011;15634;48.766;2.272;2023-05-19T09:08:59;14.68;;;6.95;;
10226;SDS011;15634;48.766;2.272;2023-05-19T09:11:27;13.95;;;6.28;;
10226;SDS011;15634;48.766;2.272;2023-05-19T09:13:53;13.55;;;6.20;;
10226;SDS011;15634;48.766;2.272;2023-05-19T09:16:20;12.80;;;6.35;;
10226;SDS011;15634;48.766;2.272;2023-05-19T09:18:53;17.63;;;7.38;;
10226;SDS011;15634;48.766;2.272;2023-05-19T09:21:25;17.38;;;6.95;;
10226;SDS011;15634;48.766;2.272;2023-05-19T09:23:55;12.85;;;7.03;;
10226;SDS011;15634;48.766;2.272;2023-05-19T09:26:21;16.23;;;7.03;;
10226;SDS011;15634;48.766;2.272;2023-05-19T09:28:49;14.15;;;6.70;;
10226;SDS011;15634;48.766;2.272;2023-05-19T09:31:16;13.02;;;6.53;;
10226;SDS011;15634;48.766;2.272;2023-05-19T09:33:43;13.90;;;7.03;;
10226;SDS011;15634;48.766;2.272;2023-05-19T09:36:09;13.95;;;6.20;;
10226;SDS011;15634;48.766;2.272;2023-05-19T09:38:37;14.57;;;6.40;;
10226;SDS011;15634;48.766;2.272;2023-05-19T09:41:05;12.85;;;5.80;;
10226;SDS011;15634;48.766;2.272;2023-05-19T09:43:33;12.73;;;6.97;;
10226;SDS011;15634;48.766;2.272;2023-05-19T09:46:04;12.50;;;6.25;;
10226;SDS011;15634;48.766;2.272;2023-05-19T09:48:31;11.68;;;6.65;;
10226;SDS011;15634;48.766;2.272;2023-05-19T09:50:59;12.68;;;5.93;;
10226;SDS011;15634;48.766;2.272;2023-05-19T09:53:25;11.45;;;6.25;;
10226;SDS011;15634;48.766;2.272;2023-05-19T09:55:54;10.70;;;5.80;;
10226;SDS011;15634;48.766;2.272;2023-05-19T09:58:22;11.95;;;6.07;;
10226;SDS011;15634;48.766;2.272;2023-05-19T10:00:50;10.20;;;5.50;;
10226;SDS011;15634;48.766;2.272;2023-05-19T10:03:20;10.77;;;5.28;;
10226;SDS011;15634;48.766;2.272;2023-05-19T10:05:48;10.38;;;5.45;;
10226;SDS011;15634;48.766;2.272;2023-05-19T10:08:15;11.68;;;5.93;;
10226;SDS011;15634;48.766;2.272;2023-05-19T10:10:43;9.02;;;5.95;;
10226;SDS011;15634;48.766;2.272;2023-05-19T10:13:10;14.20;;;6.43;;
10226;SDS011;15634;48.766;2.272;2023-05-19T10:15:38;13.52;;;5.50;;
10226;SDS011;15634;48.766;2.272;2023-05-19T10:18:05;11.60;;;5.70;;
10226;SDS011;15634;48.766;2.272;2023-05-19T10:20:35;14.45;;;5.75;;
10226;SDS011;15634;48.766;2.272;2023-05-19T10:23:02;13.52;;;5.97;;
10226;SDS011;15634;48.766;2.272;2023-05-19T10:25:29;11.13;;;5.88;;
10226;SDS011;15634;48.766;2.272;2023-05-19T10:27:57;13.98;;;6.93;;
10226;SDS011;15634;48.766;2.272;2023-05-19T10:30:30;13.27;;;6.97;;
10226;SDS011;15634;48.766;2.272;2023-05-19T10:32:59;12.55;;;6.03;;
10226;SDS011;15634;48.766;2.272;2023-05-19T10:35:33;11.23;;;5.25;;
10226;SDS011;15634;48.766;2.272;2023-05-19T10:38:11;13.95;;;6.05;;
10226;SDS011;15634;48.766;2.272;2023-05-19T10:40:49;13.25;;;5.07;;
10226;SDS011;15634;48.766;2.272;2023-05-19T10:43:21;7.80;;;4.75;;
10226;SDS011;15634;48.766;2.272;2023-05-19T10:45:51;12.52;;;4.60;;
10226;SDS011;15634;48.766;2.272;2023-05-19T10:48:19;9.38;;;4.30;;
10226;SDS011;15634;48.766;2.272;2023-05-19T10:50:47;10.38;;;4.25;;
10226;SDS011;15634;48.766;2.272;2023-05-19T10:53:14;10.13;;;3.90;;
10226;SDS011;15634;48.766;2.272;2023-05-19T10:55:46;9.93;;;4.13;;
10226;SDS011;15634;48.766;2.272;2023-05-19T11:01:06;8.98;;;4.13;;
10226;SDS011;15634;48.766;2.272;2023-05-19T11:03:41;7.85;;;4.38;;
10226;SDS011;15634;48.766;2.272;2023-05-19T11:06:18;11.18;;;4.75;;
10226;SDS011;15634;48.766;2.272;2023-05-19T11:08:45;10.07;;;4.80;;
10226;SDS011;15634;48.766;2.272;2023-05-19T11:11:13;11.38;;;4.57;;
10226;SDS011;15634;48.766;2.272;2023-05-19T11:13:42;7.55;;;4.13;;
10226;SDS011;15634;48.766;2.272;2023-05-19T11:16:09;11.45;;;5.07;;
10226;SDS011;15634;48.766;2.272;2023-05-19T11:18:36;24.73;;;12.00;;
10226;SDS011;15634;48.766;2.272;2023-05-19T11:21:03;11.57;;;5.45;;
10226;SDS011;15634;48.766;2.272;2023-05-19T11:23:33;14.70;;;5.30;;
10226;SDS011;15634;48.766;2.272;2023-05-19T11:26:05;17.73;;;8.85;;
10226;SDS011;15634;48.766;2.272;2023-05-19T11:28:32;18.77;;;8.23;;
10226;SDS011;15634;48.766;2.272;2023-05-19T11:30:59;24.02;;;11.65;;
10226;SDS011;15634;48.766;2.272;2023-05-19T11:33:26;18.67;;;7.35;;
10226;SDS011;15634;48.766;2.272;2023-05-19T11:35:53;17.35;;;7.78;;
10226;SDS011;15634;48.766;2.272;2023-05-19T11:38:21;12.07;;;5.50;;
10226;SDS011;15634;48.766;2.272;2023-05-19T11:40:51;10.07;;;5.45;;
10226;SDS011;15634;48.766;2.272;2023-05-19T11:43:18;11.52;;;5.00;;
10226;SDS011;15634;48.766;2.272;2023-05-19T11:45:48;12.07;;;5.35;;
10226;SDS011;15634;48.766;2.272;2023-05-19T11:48:14;11.43;;;4.90;;
10226;SDS011;15634;48.766;2.272;2023-05-19T11:50:41;8.40;;;5.18;;
10226;SDS011;15634;48.766;2.272;2023-05-19T11:53:10;9.80;;;5.65;;
10226;SDS011;15634;48.766;2.272;2023-05-19T11:55:40;10.15;;;4.47;;
10226;SDS011;15634;48.766;2.272;2023-05-19T11:58:09;9.23;;;4.28;;
10226;SDS011;15634;48.766;2.272;2023-05-19T12:00:36;9.63;;;4.20;;
10226;SDS011;15634;48.766;2.272;2023-05-19T12:03:04;9.65;;;4.30;;
10226;SDS011;15634;48.766;2.272;2023-05-19T12:05:31;8.43;;;4.53;;
10226;SDS011;15634;48.766;2.272;2023-05-19T12:07:59;8.23;;;3.90;;
10226;SDS011;15634;48.766;2.272;2023-05-19T12:10:26;11.27;;;4.82;;
10226;SDS011;15634;48.766;2.272;2023-05-19T12:12:54;10.73;;;4.45;;
10226;SDS011;15634;48.766;2.272;2023-05-19T12:15:22;9.73;;;4.32;;
10226;SDS011;15634;48.766;2.272;2023-05-19T12:17:49;8.27;;;4.50;;
10226;SDS011;15634;48.766;2.272;2023-05-19T12:20:16;9.48;;;4.07;;
10226;SDS011;15634;48.766;2.272;2023-05-19T12:22:43;11.23;;;4.28;;
10226;SDS011;15634;48.766;2.272;2023-05-19T12:25:11;10.05;;;4.57;;
10226;SDS011;15634;48.766;2.272;2023-05-19T12:27:37;8.07;;;4.35;;
10226;SDS011;15634;48.766;2.272;2023-05-19T12:30:05;10.82;;;4.60;;
10226;SDS011;15634;48.766;2.272;2023-05-19T12:32:33;10.02;;;4.32;;
10226;SDS011;15634;48.766;2.272;2023-05-19T12:35:01;10.98;;;4.85;;
10226;SDS011;15634;48.766;2.272;2023-05-19T12:37:30;11.32;;;4.35;;
10226;SDS011;15634;48.766;2.272;2023-05-19T12:39:58;7.80;;;4.85;;
10226;SDS011;15634;48.766;2.272;2023-05-19T12:42:26;9.48;;;4.13;;
10226;SDS011;15634;48.766;2.272;2023-05-19T12:44:55;7.82;;;4.20;;
10226;SDS011;15634;48.766;2.272;2023-05-19T12:47:27;9.35;;;4.25;;
10226;SDS011;15634;48.766;2.272;2023-05-19T12:49:59;9.50;;;4.22;;
10226;SDS011;15634;48.766;2.272;2023-05-19T12:52:27;9.93;;;4.30;;
10226;SDS011;15634;48.766;2.272;2023-05-19T12:54:57;8.80;;;4.20;;
10226;SDS011;15634;48.766;2.272;2023-05-19T12:57:25;25.33;;;4.60;;
10226;SDS011;15634;48.766;2.272;2023-05-19T12:59:51;11.32;;;3.88;;
10226;SDS011;15634;48.766;2.272;2023-05-19T13:02:18;10.18;;;4.15;;
10226;SDS011;15634;48.766;2.272;2023-05-19T13:04:45;8.88;;;4.20;;
10226;SDS011;15634;48.766;2.272;2023-05-19T13:07:13;10.68;;;4.40;;
10226;SDS011;15634;48.766;2.272;2023-05-19T13:09:40;9.70;;;4.30;;
10226;SDS011;15634;48.766;2.272;2023-05-19T13:12:06;8.10;;;4.20;;
10226;SDS011;15634;48.766;2.272;2023-05-19T13:14:33;8.60;;;4.07;;
10226;SDS011;15634;48.766;2.272;2023-05-19T13:17:00;9.45;;;4.07;;
10226;SDS011;15634;48.766;2.272;2023-05-19T13:19:27;8.05;;;4.00;;
10226;SDS011;15634;48.766;2.272;2023-05-19T13:21:54;9.07;;;3.97;;
10226;SDS011;15634;48.766;2.272;2023-05-19T13:24:22;7.07;;;4.43;;
10226;SDS011;15634;48.766;2.272;2023-05-19T13:26:49;9.25;;;4.15;;
10226;SDS011;15634;48.766;2.272;2023-05-19T13:29:16;7.25;;;4.15;;
10226;SDS011;15634;48.766;2.272;2023-05-19T13:31:42;11.45;;;4.22;;
10226;SDS011;15634;48.766;2.272;2023-05-19T13:34:09;11.93;;;4.45;;
10226;SDS011;15634;48.766;2.272;2023-05-19T13:36:35;9.20;;;4.30;;
10226;SDS011;15634;48.766;2.272;2023-05-19T13:39:03;7.97;;;4.35;;
10226;SDS011;15634;48.766;2.272;2023-05-19T13:41:31;6.28;;;3.97;;
10226;SDS011;15634;48.766;2.272;2023-05-19T13:43:57;8.63;;;4.10;;
10226;SDS011;15634;48.766;2.272;2023-05-19T13:46:24;12.27;;;4.93;;
10226;SDS011;15634;48.766;2.272;2023-05-19T13:48:51;10.52;;;4.80;;
10226;SDS011;15634;48.766;2.272;2023-05-19T13:51:17;9.60;;;4.25;;
10226;SDS011;15634;48.766;2.272;2023-05-19T13:53:44;7.00;;;4.10;;
10226;SDS011;15634;48.766;2.272;2023-05-19T13:56:10;8.98;;;4.20;;
10226;SDS011;15634;48.766;2.272;2023-05-19T13:58:38;10.82;;;4.90;;
10226;SDS011;15634;48.766;2.272;2023-05-19T14:01:05;9.20;;;4.53;;
10226;SDS011;15634;48.766;2.272;2023-05-19T14:03:32;7.68;;;4.20;;
10226;SDS011;15634;48.766;2.272;2023-05-19T14:05:59;7.55;;;3.78;;
10226;SDS011;15634;48.766;2.272;2023-05-19T14:08:25;9.18;;;3.95;;
10226;SDS011;15634;48.766;2.272;2023-05-19T14:10:53;10.75;;;3.97;;
10226;SDS011;15634;48.766;2.272;2023-05-19T14:13:20;9.02;;;3.70;;
10226;SDS011;15634;48.766;2.272;2023-05-19T14:15:48;9.93;;;4.35;;
10226;SDS011;15634;48.766;2.272;2023-05-19T14:18:14;7.53;;;3.80;;
10226;SDS011;15634;48.766;2.272;2023-05-19T14:20:41;7.22;;;4.00;;
10226;SDS011;15634;48.766;2.272;2023-05-19T14:23:07;8.35;;;4.22;;
10226;SDS011;15634;48.766;2.272;2023-05-19T14:25:34;8.60;;;4.20;;
10226;SDS011;15634;48.766;2.272;2023-05-19T14:28:00;9.15;;;4.03;;
10226;SDS011;15634;48.766;2.272;2023-05-19T14:30:27;11.77;;;4.32;;
10226;SDS011;15634;48.766;2.272;2023-05-19T14:32:55;9.10;;;4.07;;
10226;SDS011;15634;48.766;2.272;2023-05-19T14:35:21;10.10;;;4.60;;
10226;SDS011;15634;48.766;2.272;2023-05-19T14:37:49;12.27;;;4.13;;
10226;SDS011;15634;48.766;2.272;2023-05-19T14:40:16;9.35;;;4.63;;
10226;SDS011;15634;48.766;2.272;2023-05-19T14:42:42;6.97;;;3.53;;